createdAt,value
2017-03-31T00:06:52.194Z,7
2017-03-31T00:16:52.166Z,6
2017-03-31T00:26:52.207Z,7
2017-03-31T00:36:52.246Z,9
2017-03-31T00:46:52.148Z,6
2017-03-31T00:56:52.182Z,7
2017-03-31T01:06:52.157Z,9
2017-03-31T01:16:52.215Z,10
2017-03-31T01:26:52.167Z,10
2017-03-31T01:36:52.113Z,11
2017-03-31T01:46:52.230Z,8
2017-03-31T01:56:52.187Z,10
2017-03-31T02:06:52.147Z,9
2017-03-31T02:16:52.208Z,9
2017-03-31T02:26:52.163Z,8
2017-03-31T02:36:52.246Z,8
2017-03-31T02:46:52.170Z,8
2017-03-31T02:56:52.144Z,8
2017-03-31T03:06:52.206Z,12
2017-03-31T03:16:52.166Z,9
2017-03-31T03:26:52.090Z,8
2017-03-31T03:36:52.181Z,12
2017-03-31T03:46:52.155Z,9
2017-03-31T03:56:52.216Z,10
2017-03-31T04:06:52.139Z,11
2017-03-31T04:16:52.155Z,10
2017-03-31T04:26:52.216Z,11
2017-03-31T04:36:52.156Z,10
2017-03-31T04:46:52.160Z,10
2017-03-31T04:56:52.203Z,10
2017-03-31T05:06:52.150Z,11
2017-03-31T05:16:52.198Z,12
2017-03-31T05:26:52.168Z,12
2017-03-31T05:36:52.102Z,10
2017-03-31T05:46:52.192Z,16
2017-03-31T05:56:52.138Z,14
2017-03-31T06:06:52.221Z,10
2017-03-31T06:16:52.152Z,11
2017-03-31T06:26:52.141Z,12
2017-03-31T06:36:52.187Z,14
2017-03-31T06:46:52.152Z,13
2017-03-31T06:56:52.124Z,16
2017-03-31T07:06:52.190Z,13
2017-03-31T07:16:52.161Z,17
2017-03-31T07:27:17.963Z,13
2017-03-31T07:36:52.228Z,13
2017-03-31T07:46:52.925Z,11
2017-03-31T07:56:52.307Z,10
2017-03-31T08:06:52.140Z,10
2017-03-31T08:16:52.127Z,11
2017-03-31T08:26:52.147Z,11
2017-03-31T08:36:52.139Z,10
2017-03-31T08:46:52.116Z,10
2017-03-31T08:56:52.120Z,9
2017-03-31T09:06:52.126Z,10
2017-03-31T09:16:52.119Z,11
2017-03-31T09:26:52.132Z,14
2017-03-31T09:36:52.135Z,8
2017-03-31T09:46:52.119Z,6
2017-03-31T09:56:52.140Z,12
2017-03-31T10:06:52.148Z,8
2017-03-31T10:16:52.137Z,12
2017-03-31T10:26:52.636Z,8
2017-03-31T10:36:52.142Z,7
2017-03-31T10:46:52.230Z,9
2017-03-31T10:56:52.128Z,8
2017-03-31T11:06:52.150Z,8
2017-03-31T11:16:52.119Z,7
2017-03-31T11:26:52.121Z,8
2017-03-31T11:36:52.163Z,7
2017-03-31T11:46:52.149Z,8
2017-03-31T11:56:52.191Z,10
2017-03-31T12:06:52.139Z,10
2017-03-31T12:16:52.232Z,9
2017-03-31T12:26:52.480Z,9
2017-03-31T12:36:52.644Z,8
2017-03-31T12:47:02.019Z,7
2017-03-31T12:56:53.039Z,7
2017-03-31T13:06:52.516Z,7
2017-03-31T13:16:52.510Z,8
2017-03-31T13:26:53.082Z,6
2017-03-31T13:36:52.614Z,6
2017-03-31T13:46:52.567Z,6
2017-03-31T13:56:52.178Z,5
2017-03-31T14:06:52.317Z,7
2017-03-31T14:16:52.252Z,5
2017-03-31T14:26:52.203Z,7
2017-03-31T14:36:52.172Z,5
2017-03-31T14:46:52.170Z,7
2017-03-31T14:56:52.215Z,6
2017-03-31T15:06:52.181Z,6
2017-03-31T15:16:52.194Z,5
2017-03-31T15:26:52.200Z,6
2017-03-31T15:36:52.220Z,6
2017-03-31T15:46:52.194Z,7
2017-03-31T15:56:52.179Z,7
2017-03-31T16:06:52.202Z,6
2017-03-31T16:16:52.248Z,5
2017-03-31T16:26:52.240Z,6
2017-03-31T16:36:52.290Z,5
2017-03-31T16:46:52.239Z,5
2017-03-31T16:56:52.240Z,5
2017-03-31T17:06:52.339Z,6
2017-03-31T17:16:52.229Z,8
2017-03-31T17:26:52.297Z,7
2017-03-31T17:36:52.212Z,11
2017-03-31T17:46:52.251Z,8
2017-03-31T17:56:52.312Z,12
2017-03-31T18:06:52.245Z,12
2017-03-31T18:16:52.340Z,16
2017-03-31T18:26:52.662Z,17
2017-03-31T18:36:52.985Z,17
2017-03-31T18:46:53.309Z,18
2017-03-31T18:56:52.273Z,18
2017-03-31T19:06:52.328Z,17
2017-03-31T19:16:52.293Z,18
2017-03-31T19:26:52.266Z,13
2017-03-31T19:36:52.321Z,16
2017-03-31T19:46:52.270Z,17
2017-03-31T19:56:52.236Z,16
2017-03-31T20:06:52.334Z,15
2017-03-31T20:16:52.291Z,16
2017-03-31T20:26:52.459Z,18
2017-03-31T20:36:52.504Z,16
2017-03-31T20:46:52.334Z,18
2017-03-31T20:56:52.639Z,19
2017-03-31T21:06:52.303Z,20
2017-03-31T21:16:53.131Z,23
2017-03-31T21:26:52.785Z,26
2017-03-31T21:37:02.209Z,25
2017-03-31T21:46:52.500Z,23
2017-03-31T21:56:52.900Z,25
2017-03-31T22:06:52.283Z,26
2017-03-31T22:16:52.321Z,28
2017-03-31T22:26:52.279Z,32
2017-03-31T22:36:52.252Z,33
2017-03-31T22:46:52.317Z,40
2017-03-31T22:56:52.269Z,37
2017-03-31T23:06:52.354Z,34
2017-03-31T23:16:52.315Z,36
2017-03-31T23:26:52.261Z,41
2017-03-31T23:36:52.310Z,42
2017-03-31T23:46:52.886Z,39
2017-03-31T23:56:52.206Z,33
